sensor_id;sensor_type;location;lat;lon;timestamp;P1;durP1;ratioP1;P2;durP2;ratioP2
18194;SDS011;9223;50.988;3.162;2024-02-04T00:04:52;3.50;;;1.60;;
18194;SDS011;9223;50.988;3.162;2024-02-04T00:10:55;4.00;;;2.10;;
18194;SDS011;9223;50.988;3.162;2024-02-04T00:17:00;8.98;;;2.30;;
18194;SDS011;9223;50.988;3.162;2024-02-04T00:23:04;4.38;;;1.60;;
18194;SDS011;9223;50.988;3.162;2024-02-04T00:29:08;2.47;;;1.30;;
18194;SDS011;9223;50.988;3.162;2024-02-04T00:35:12;4.20;;;2.28;;
18194;SDS011;9223;50.988;3.162;2024-02-04T00:41:16;4.82;;;2.00;;
18194;SDS011;9223;50.988;3.162;2024-02-04T00:47:20;8.38;;;2.67;;
18194;SDS011;9223;50.988;3.162;2024-02-04T00:53:24;4.05;;;2.00;;
18194;SDS011;9223;50.988;3.162;2024-02-04T00:59:35;3.60;;;1.92;;
18194;SDS011;9223;50.988;3.162;2024-02-04T01:05:38;7.72;;;2.90;;
18194;SDS011;9223;50.988;3.162;2024-02-04T01:11:43;8.90;;;2.83;;
18194;SDS011;9223;50.988;3.162;2024-02-04T01:17:47;4.80;;;1.42;;
18194;SDS011;9223;50.988;3.162;2024-02-04T01:23:51;9.02;;;2.72;;
18194;SDS011;9223;50.988;3.162;2024-02-04T01:29:56;11.88;;;3.03;;
18194;SDS011;9223;50.988;3.162;2024-02-04T01:35:59;4.20;;;1.85;;
18194;SDS011;9223;50.988;3.162;2024-02-04T01:42:03;2.72;;;1.10;;
18194;SDS011;9223;50.988;3.162;2024-02-04T01:48:08;3.20;;;2.08;;
18194;SDS011;9223;50.988;3.162;2024-02-04T01:54:12;10.50;;;2.25;;
18194;SDS011;9223;50.988;3.162;2024-02-04T02:00:16;15.82;;;3.30;;
18194;SDS011;9223;50.988;3.162;2024-02-04T02:06:21;5.35;;;1.63;;
18194;SDS011;9223;50.988;3.162;2024-02-04T02:12:25;2.40;;;1.38;;
18194;SDS011;9223;50.988;3.162;2024-02-04T02:18:31;7.65;;;2.17;;
18194;SDS011;9223;50.988;3.162;2024-02-04T02:24:38;2.13;;;1.20;;
18194;SDS011;9223;50.988;3.162;2024-02-04T02:30:42;4.63;;;2.05;;
18194;SDS011;9223;50.988;3.162;2024-02-04T02:36:45;3.35;;;1.55;;
18194;SDS011;9223;50.988;3.162;2024-02-04T02:42:54;2.92;;;1.52;;
18194;SDS011;9223;50.988;3.162;2024-02-04T02:48:58;3.70;;;1.60;;
18194;SDS011;9223;50.988;3.162;2024-02-04T02:55:02;3.35;;;1.30;;
18194;SDS011;9223;50.988;3.162;2024-02-04T03:01:07;4.30;;;2.00;;
18194;SDS011;9223;50.988;3.162;2024-02-04T03:07:12;4.22;;;1.30;;
18194;SDS011;9223;50.988;3.162;2024-02-04T03:13:16;1.40;;;0.82;;
18194;SDS011;9223;50.988;3.162;2024-02-04T03:19:22;3.92;;;1.05;;
18194;SDS011;9223;50.988;3.162;2024-02-04T03:25:26;1.85;;;0.90;;
18194;SDS011;9223;50.988;3.162;2024-02-04T03:31:31;2.75;;;1.40;;
18194;SDS011;9223;50.988;3.162;2024-02-04T03:37:37;4.47;;;1.48;;
18194;SDS011;9223;50.988;3.162;2024-02-04T03:43:44;3.80;;;1.73;;
18194;SDS011;9223;50.988;3.162;2024-02-04T03:49:48;9.95;;;2.90;;
18194;SDS011;9223;50.988;3.162;2024-02-04T03:55:58;5.15;;;2.60;;
18194;SDS011;9223;50.988;3.162;2024-02-04T04:02:04;4.70;;;1.48;;
18194;SDS011;9223;50.988;3.162;2024-02-04T04:08:09;2.60;;;1.00;;
18194;SDS011;9223;50.988;3.162;2024-02-04T04:14:15;7.18;;;2.53;;
18194;SDS011;9223;50.988;3.162;2024-02-04T04:20:23;7.60;;;3.08;;
18194;SDS011;9223;50.988;3.162;2024-02-04T04:26:27;5.45;;;1.95;;
18194;SDS011;9223;50.988;3.162;2024-02-04T04:32:33;5.32;;;2.08;;
18194;SDS011;9223;50.988;3.162;2024-02-04T04:38:37;3.25;;;1.50;;
18194;SDS011;9223;50.988;3.162;2024-02-04T04:44:42;3.28;;;1.42;;
18194;SDS011;9223;50.988;3.162;2024-02-04T04:50:51;5.82;;;1.90;;
18194;SDS011;9223;50.988;3.162;2024-02-04T04:56:56;7.05;;;2.60;;
18194;SDS011;9223;50.988;3.162;2024-02-04T05:03:01;3.75;;;1.45;;
18194;SDS011;9223;50.988;3.162;2024-02-04T05:09:16;3.85;;;1.50;;
18194;SDS011;9223;50.988;3.162;2024-02-04T05:15:22;2.75;;;1.17;;
18194;SDS011;9223;50.988;3.162;2024-02-04T05:21:27;1.52;;;1.05;;
18194;SDS011;9223;50.988;3.162;2024-02-04T05:27:33;1.63;;;1.00;;
18194;SDS011;9223;50.988;3.162;2024-02-04T05:33:43;2.53;;;0.75;;
18194;SDS011;9223;50.988;3.162;2024-02-04T05:39:48;3.10;;;1.30;;
18194;SDS011;9223;50.988;3.162;2024-02-04T05:45:54;3.15;;;0.98;;
18194;SDS011;9223;50.988;3.162;2024-02-04T05:51:58;2.53;;;0.98;;
18194;SDS011;9223;50.988;3.162;2024-02-04T05:58:03;2.08;;;0.88;;
18194;SDS011;9223;50.988;3.162;2024-02-04T06:04:12;3.20;;;1.40;;
18194;SDS011;9223;50.988;3.162;2024-02-04T06:10:17;3.78;;;1.30;;
18194;SDS011;9223;50.988;3.162;2024-02-04T06:16:21;3.83;;;1.45;;
18194;SDS011;9223;50.988;3.162;2024-02-04T06:22:27;3.00;;;1.17;;
18194;SDS011;9223;50.988;3.162;2024-02-04T06:28:32;4.05;;;1.17;;
18194;SDS011;9223;50.988;3.162;2024-02-04T06:34:36;1.55;;;0.90;;
18194;SDS011;9223;50.988;3.162;2024-02-04T06:40:50;4.38;;;1.42;;
18194;SDS011;9223;50.988;3.162;2024-02-04T06:47:03;4.25;;;1.23;;
18194;SDS011;9223;50.988;3.162;2024-02-04T06:53:31;5.20;;;1.50;;
18194;SDS011;9223;50.988;3.162;2024-02-04T06:59:47;6.53;;;1.70;;
18194;SDS011;9223;50.988;3.162;2024-02-04T07:05:51;4.20;;;1.42;;
18194;SDS011;9223;50.988;3.162;2024-02-04T07:11:55;1.15;;;0.70;;
18194;SDS011;9223;50.988;3.162;2024-02-04T07:18:01;2.40;;;1.00;;
18194;SDS011;9223;50.988;3.162;2024-02-04T07:24:06;4.68;;;1.08;;
18194;SDS011;9223;50.988;3.162;2024-02-04T07:30:11;3.47;;;1.05;;
18194;SDS011;9223;50.988;3.162;2024-02-04T07:36:16;5.38;;;1.30;;
18194;SDS011;9223;50.988;3.162;2024-02-04T07:42:21;6.20;;;1.45;;
18194;SDS011;9223;50.988;3.162;2024-02-04T07:48:27;2.47;;;1.10;;
18194;SDS011;9223;50.988;3.162;2024-02-04T07:54:33;4.78;;;1.20;;
18194;SDS011;9223;50.988;3.162;2024-02-04T08:00:42;4.00;;;1.30;;
18194;SDS011;9223;50.988;3.162;2024-02-04T08:06:47;4.72;;;1.80;;
18194;SDS011;9223;50.988;3.162;2024-02-04T08:12:53;6.28;;;2.60;;
18194;SDS011;9223;50.988;3.162;2024-02-04T08:19:00;4.00;;;1.85;;
18194;SDS011;9223;50.988;3.162;2024-02-04T08:25:14;5.53;;;2.03;;
18194;SDS011;9223;50.988;3.162;2024-02-04T08:31:31;2.30;;;1.13;;
18194;SDS011;9223;50.988;3.162;2024-02-04T08:37:37;2.58;;;1.40;;
18194;SDS011;9223;50.988;3.162;2024-02-04T08:43:44;2.45;;;0.77;;
18194;SDS011;9223;50.988;3.162;2024-02-04T08:49:50;5.28;;;0.85;;
18194;SDS011;9223;50.988;3.162;2024-02-04T08:55:58;2.15;;;1.02;;
18194;SDS011;9223;50.988;3.162;2024-02-04T09:02:03;3.95;;;0.80;;
18194;SDS011;9223;50.988;3.162;2024-02-04T09:08:15;3.17;;;1.05;;
18194;SDS011;9223;50.988;3.162;2024-02-04T09:14:19;3.38;;;1.20;;
18194;SDS011;9223;50.988;3.162;2024-02-04T09:33:54;3.83;;;1.48;;
18194;SDS011;9223;50.988;3.162;2024-02-04T09:40:00;3.17;;;1.10;;
18194;SDS011;9223;50.988;3.162;2024-02-04T09:46:13;2.72;;;1.05;;
18194;SDS011;9223;50.988;3.162;2024-02-04T09:52:24;3.83;;;1.00;;
18194;SDS011;9223;50.988;3.162;2024-02-04T09:58:40;6.07;;;1.35;;
18194;SDS011;9223;50.988;3.162;2024-02-04T10:05:02;2.65;;;1.42;;
18194;SDS011;9223;50.988;3.162;2024-02-04T10:11:31;2.30;;;0.82;;
18194;SDS011;9223;50.988;3.162;2024-02-04T10:17:41;2.17;;;1.10;;
18194;SDS011;9223;50.988;3.162;2024-02-04T10:23:47;5.25;;;1.30;;
18194;SDS011;9223;50.988;3.162;2024-02-04T10:29:55;2.72;;;1.20;;
18194;SDS011;9223;50.988;3.162;2024-02-04T10:36:00;3.25;;;1.10;;
18194;SDS011;9223;50.988;3.162;2024-02-04T10:42:06;2.28;;;1.17;;
18194;SDS011;9223;50.988;3.162;2024-02-04T10:48:14;3.72;;;1.15;;
18194;SDS011;9223;50.988;3.162;2024-02-04T10:54:20;7.18;;;1.67;;
18194;SDS011;9223;50.988;3.162;2024-02-04T11:00:28;5.18;;;1.80;;
18194;SDS011;9223;50.988;3.162;2024-02-04T11:06:38;4.82;;;1.27;;
18194;SDS011;9223;50.988;3.162;2024-02-04T11:12:44;7.68;;;1.73;;
18194;SDS011;9223;50.988;3.162;2024-02-04T11:18:54;7.82;;;2.58;;
18194;SDS011;9223;50.988;3.162;2024-02-04T11:25:07;9.95;;;3.67;;
18194;SDS011;9223;50.988;3.162;2024-02-04T11:31:17;5.82;;;2.65;;
18194;SDS011;9223;50.988;3.162;2024-02-04T11:37:22;4.45;;;1.50;;
18194;SDS011;9223;50.988;3.162;2024-02-04T11:43:34;3.20;;;1.40;;
18194;SDS011;9223;50.988;3.162;2024-02-04T11:49:41;8.57;;;1.40;;
18194;SDS011;9223;50.988;3.162;2024-02-04T11:55:45;4.03;;;2.33;;
18194;SDS011;9223;50.988;3.162;2024-02-04T12:01:54;4.38;;;1.63;;
18194;SDS011;9223;50.988;3.162;2024-02-04T12:08:01;3.47;;;1.60;;
18194;SDS011;9223;50.988;3.162;2024-02-04T12:14:06;5.38;;;1.48;;
18194;SDS011;9223;50.988;3.162;2024-02-04T12:20:16;5.28;;;1.58;;
18194;SDS011;9223;50.988;3.162;2024-02-04T12:26:22;3.67;;;1.10;;
18194;SDS011;9223;50.988;3.162;2024-02-04T12:32:26;5.55;;;1.40;;
18194;SDS011;9223;50.988;3.162;2024-02-04T12:38:43;4.60;;;1.42;;
18194;SDS011;9223;50.988;3.162;2024-02-04T12:45:02;4.38;;;1.55;;
18194;SDS011;9223;50.988;3.162;2024-02-04T12:51:08;2.92;;;1.05;;
18194;SDS011;9223;50.988;3.162;2024-02-04T12:57:22;3.13;;;1.52;;
18194;SDS011;9223;50.988;3.162;2024-02-04T13:03:27;4.68;;;1.52;;
18194;SDS011;9223;50.988;3.162;2024-02-04T13:09:32;2.90;;;0.95;;
18194;SDS011;9223;50.988;3.162;2024-02-04T13:15:42;3.75;;;1.35;;
18194;SDS011;9223;50.988;3.162;2024-02-04T13:21:49;4.72;;;1.70;;
18194;SDS011;9223;50.988;3.162;2024-02-04T13:27:57;2.92;;;1.23;;
18194;SDS011;9223;50.988;3.162;2024-02-04T13:34:08;8.50;;;1.63;;
18194;SDS011;9223;50.988;3.162;2024-02-04T13:40:31;4.35;;;2.05;;
18194;SDS011;9223;50.988;3.162;2024-02-04T13:46:36;7.50;;;1.88;;
18194;SDS011;9223;50.988;3.162;2024-02-04T13:52:48;5.25;;;1.40;;
18194;SDS011;9223;50.988;3.162;2024-02-04T13:58:52;5.22;;;2.20;;
18194;SDS011;9223;50.988;3.162;2024-02-04T14:04:56;5.38;;;2.08;;
18194;SDS011;9223;50.988;3.162;2024-02-04T14:11:02;6.50;;;2.38;;
18194;SDS011;9223;50.988;3.162;2024-02-04T14:17:08;5.35;;;2.70;;
18194;SDS011;9223;50.988;3.162;2024-02-04T14:23:14;5.93;;;2.35;;
18194;SDS011;9223;50.988;3.162;2024-02-04T14:29:20;7.75;;;2.63;;
18194;SDS011;9223;50.988;3.162;2024-02-04T14:35:24;8.68;;;3.42;;
18194;SDS011;9223;50.988;3.162;2024-02-04T14:41:29;5.15;;;2.10;;
18194;SDS011;9223;50.988;3.162;2024-02-04T14:47:36;5.85;;;2.58;;
18194;SDS011;9223;50.988;3.162;2024-02-04T14:53:41;5.55;;;2.15;;
18194;SDS011;9223;50.988;3.162;2024-02-04T14:59:48;4.82;;;1.92;;
18194;SDS011;9223;50.988;3.162;2024-02-04T15:05:54;5.47;;;1.58;;
18194;SDS011;9223;50.988;3.162;2024-02-04T15:12:03;5.47;;;1.45;;
18194;SDS011;9223;50.988;3.162;2024-02-04T15:18:15;5.82;;;1.83;;
18194;SDS011;9223;50.988;3.162;2024-02-04T15:24:22;4.88;;;2.10;;
18194;SDS011;9223;50.988;3.162;2024-02-04T15:30:28;4.25;;;1.80;;
18194;SDS011;9223;50.988;3.162;2024-02-04T15:36:34;6.43;;;1.77;;
18194;SDS011;9223;50.988;3.162;2024-02-04T15:42:40;4.63;;;2.05;;
18194;SDS011;9223;50.988;3.162;2024-02-04T15:48:45;4.35;;;1.48;;
18194;SDS011;9223;50.988;3.162;2024-02-04T15:54:49;3.85;;;2.05;;
18194;SDS011;9223;50.988;3.162;2024-02-04T16:00:55;7.35;;;2.47;;
18194;SDS011;9223;50.988;3.162;2024-02-04T16:06:59;6.47;;;2.22;;
18194;SDS011;9223;50.988;3.162;2024-02-04T16:13:03;4.45;;;1.60;;
18194;SDS011;9223;50.988;3.162;2024-02-04T16:19:14;4.80;;;1.77;;
18194;SDS011;9223;50.988;3.162;2024-02-04T16:25:17;6.53;;;2.63;;
18194;SDS011;9223;50.988;3.162;2024-02-04T16:31:21;2.92;;;1.27;;
18194;SDS011;9223;50.988;3.162;2024-02-04T16:37:26;5.25;;;1.90;;
18194;SDS011;9223;50.988;3.162;2024-02-04T16:43:30;6.75;;;1.85;;
18194;SDS011;9223;50.988;3.162;2024-02-04T16:49:33;4.20;;;1.73;;
18194;SDS011;9223;50.988;3.162;2024-02-04T16:55:38;6.68;;;2.20;;
18194;SDS011;9223;50.988;3.162;2024-02-04T17:01:42;10.77;;;2.63;;
18194;SDS011;9223;50.988;3.162;2024-02-04T17:07:46;9.13;;;2.50;;
18194;SDS011;9223;50.988;3.162;2024-02-04T17:13:51;6.00;;;2.08;;
18194;SDS011;9223;50.988;3.162;2024-02-04T17:19:57;11.13;;;2.53;;
18194;SDS011;9223;50.988;3.162;2024-02-04T17:26:09;7.43;;;2.42;;
18194;SDS011;9223;50.988;3.162;2024-02-04T17:32:17;6.72;;;1.58;;
18194;SDS011;9223;50.988;3.162;2024-02-04T17:38:27;3.88;;;1.52;;
18194;SDS011;9223;50.988;3.162;2024-02-04T17:44:31;8.73;;;2.53;;
18194;SDS011;9223;50.988;3.162;2024-02-04T17:50:36;4.88;;;1.80;;
18194;SDS011;9223;50.988;3.162;2024-02-04T17:56:41;5.07;;;1.83;;
18194;SDS011;9223;50.988;3.162;2024-02-04T18:02:44;7.57;;;2.20;;
18194;SDS011;9223;50.988;3.162;2024-02-04T18:08:50;9.43;;;2.67;;
18194;SDS011;9223;50.988;3.162;2024-02-04T18:14:53;6.30;;;2.10;;
18194;SDS011;9223;50.988;3.162;2024-02-04T18:20:57;4.97;;;2.50;;
18194;SDS011;9223;50.988;3.162;2024-02-04T18:27:02;20.55;;;3.22;;
18194;SDS011;9223;50.988;3.162;2024-02-04T18:33:06;8.02;;;2.72;;
18194;SDS011;9223;50.988;3.162;2024-02-04T18:39:09;7.63;;;2.90;;
18194;SDS011;9223;50.988;3.162;2024-02-04T18:45:17;9.38;;;3.10;;
18194;SDS011;9223;50.988;3.162;2024-02-04T18:51:20;9.18;;;3.55;;
18194;SDS011;9223;50.988;3.162;2024-02-04T18:57:24;6.88;;;2.90;;
18194;SDS011;9223;50.988;3.162;2024-02-04T19:03:31;11.70;;;3.67;;
18194;SDS011;9223;50.988;3.162;2024-02-04T19:09:35;9.02;;;3.28;;
18194;SDS011;9223;50.988;3.162;2024-02-04T19:15:39;7.85;;;2.90;;
18194;SDS011;9223;50.988;3.162;2024-02-04T19:21:44;10.45;;;3.30;;
18194;SDS011;9223;50.988;3.162;2024-02-04T19:27:48;7.32;;;2.50;;
18194;SDS011;9223;50.988;3.162;2024-02-04T19:33:52;7.32;;;2.67;;
18194;SDS011;9223;50.988;3.162;2024-02-04T19:39:57;13.90;;;4.05;;
18194;SDS011;9223;50.988;3.162;2024-02-04T19:46:01;12.55;;;4.22;;
18194;SDS011;9223;50.988;3.162;2024-02-04T19:52:06;11.73;;;4.25;;
18194;SDS011;9223;50.988;3.162;2024-02-04T19:58:11;10.25;;;3.47;;
18194;SDS011;9223;50.988;3.162;2024-02-04T20:04:14;9.57;;;3.03;;
18194;SDS011;9223;50.988;3.162;2024-02-04T20:10:20;9.75;;;4.22;;
18194;SDS011;9223;50.988;3.162;2024-02-04T20:16:25;11.27;;;4.00;;
18194;SDS011;9223;50.988;3.162;2024-02-04T20:22:28;14.27;;;3.25;;
18194;SDS011;9223;50.988;3.162;2024-02-04T20:28:32;12.20;;;3.33;;
18194;SDS011;9223;50.988;3.162;2024-02-04T20:34:38;17.23;;;3.50;;
18194;SDS011;9223;50.988;3.162;2024-02-04T20:40:42;10.77;;;2.88;;
18194;SDS011;9223;50.988;3.162;2024-02-04T20:46:45;11.55;;;3.03;;
18194;SDS011;9223;50.988;3.162;2024-02-04T20:52:50;10.50;;;3.53;;
18194;SDS011;9223;50.988;3.162;2024-02-04T20:58:55;10.35;;;2.78;;
18194;SDS011;9223;50.988;3.162;2024-02-04T21:04:58;11.98;;;2.45;;
18194;SDS011;9223;50.988;3.162;2024-02-04T21:11:04;9.48;;;3.10;;
18194;SDS011;9223;50.988;3.162;2024-02-04T21:17:07;11.60;;;3.17;;
18194;SDS011;9223;50.988;3.162;2024-02-04T21:23:13;5.25;;;2.33;;
18194;SDS011;9223;50.988;3.162;2024-02-04T21:29:18;10.45;;;3.30;;
18194;SDS011;9223;50.988;3.162;2024-02-04T21:35:22;13.52;;;3.40;;
18194;SDS011;9223;50.988;3.162;2024-02-04T21:41:26;10.63;;;2.85;;
18194;SDS011;9223;50.988;3.162;2024-02-04T21:47:31;9.43;;;2.92;;
18194;SDS011;9223;50.988;3.162;2024-02-04T21:53:34;13.00;;;3.55;;
18194;SDS011;9223;50.988;3.162;2024-02-04T21:59:38;9.70;;;3.55;;
18194;SDS011;9223;50.988;3.162;2024-02-04T22:05:43;10.50;;;2.85;;
18194;SDS011;9223;50.988;3.162;2024-02-04T22:11:47;12.15;;;3.22;;
18194;SDS011;9223;50.988;3.162;2024-02-04T22:17:50;11.82;;;3.15;;
18194;SDS011;9223;50.988;3.162;2024-02-04T22:23:57;11.85;;;2.88;;
18194;SDS011;9223;50.988;3.162;2024-02-04T22:30:01;15.55;;;3.33;;
18194;SDS011;9223;50.988;3.162;2024-02-04T22:36:07;17.38;;;3.42;;
18194;SDS011;9223;50.988;3.162;2024-02-04T22:42:12;9.45;;;2.95;;
18194;SDS011;9223;50.988;3.162;2024-02-04T22:48:16;12.32;;;3.00;;
18194;SDS011;9223;50.988;3.162;2024-02-04T22:54:20;9.07;;;3.03;;
18194;SDS011;9223;50.988;3.162;2024-02-04T23:00:25;17.40;;;3.30;;
18194;SDS011;9223;50.988;3.162;2024-02-04T23:06:32;11.90;;;3.55;;
18194;SDS011;9223;50.988;3.162;2024-02-04T23:12:36;12.30;;;3.42;;
18194;SDS011;9223;50.988;3.162;2024-02-04T23:18:42;13.52;;;3.10;;
18194;SDS011;9223;50.988;3.162;2024-02-04T23:24:47;12.25;;;3.58;;
18194;SDS011;9223;50.988;3.162;2024-02-04T23:30:50;15.23;;;3.60;;
18194;SDS011;9223;50.988;3.162;2024-02-04T23:36:55;14.27;;;3.30;;
18194;SDS011;9223;50.988;3.162;2024-02-04T23:42:59;15.32;;;3.55;;
18194;SDS011;9223;50.988;3.162;2024-02-04T23:49:03;16.38;;;4.40;;
18194;SDS011;9223;50.988;3.162;2024-02-04T23:55:09;18.20;;;3.53;;
